Adel, IA (50003)

7:53 AM CDT on July 24, 2016 (GMT -0500)
Adel IA | | Change Station

Elev 1070 ft 41.61 °N, 94.02 °W | Updated 8 minutes ago

Overcast
Overcast
79.5 °F
Feels Like 83 °F
N
3.7
Wind Variable Wind from NW

Today
High -- | Low -- °F
--% Chance of Precip.
Yesterday
High -- | Low -- °F
Precip. -- in
Pressure 29.88 in
Visibility 10.0 miles
Clouds Mostly Cloudy 1300 ft
Overcast 1800 ft
Heat Index 83 °F
Dew Point 73 °F
Humidity 81%
Rainfall 0.00 in
Snow Depth Not available.
6:03 AM 8:41 PM
Waning Gibbous, 76% visible
METAR KPRO 241235Z AUTO 30004KT 10SM BKN013 OVC018 25/24 A2988 RMK AO2 T02460241
Pressure 29.88 in
Visibility 10.0 miles
Clouds Mostly Cloudy 1300 ft
Overcast 1800 ft
Heat Index 83 °F
Dew Point 73 °F
Humidity 81%
Rainfall 0.00 in
Snow Depth Not available.
6:03 AM 8:41 PM
Waning Gibbous, 76% visible
METAR KPRO 241235Z AUTO 30004KT 10SM BKN013 OVC018 25/24 A2988 RMK AO2 T02460241

10-Day Weather Forecast

Almanac

Astronomy

Jul. 24, 2016 Rise Set
Actual Time
Civil Twilight
Nautical Twilight
Astronomical Twilight
Moon
Length of Visible Light
Length of Day
Tomorrow will be .
, % of the Moon is Illuminated

Today's Extremes

State Highs State Lows

Community

WunderPhotos

Upload Photos

1,927,054 photos uploaded!

WunderBlog® & News

Nearby

Air Quality

  Air Quality AQ Index Pollutant
Not available.

Snow Depth

Station Depth Elevation

Earthquake Activity

City Distance Mag. Time & Date
Minimum magnitude displayed is 2.5.

Coastal Water Temperatures

Place Temperature

Stations

Nearby Weather Stations

Station Location Temp. Windchill Dew Point Humidity Wind Precip. Elev Updated Type
                   

Watches & Warnings

There are currently no watches in effect.